createdAt,value
2023-02-25T00:00:13.601Z,88.67
2023-02-25T00:01:13.579Z,89.61
2023-02-25T00:02:13.585Z,89.19
2023-02-25T00:03:13.603Z,89.36
2023-02-25T00:04:13.538Z,89.19
2023-02-25T00:05:13.532Z,89.81
2023-02-25T00:06:13.727Z,89.81
2023-02-25T00:07:13.544Z,89.61
2023-02-25T00:08:13.514Z,89.71
2023-02-25T00:09:13.485Z,88.88
2023-02-25T00:10:13.492Z,88.88
2023-02-25T00:11:13.486Z,89.36
2023-02-25T00:12:13.457Z,89.46
2023-02-25T00:13:18.495Z,88.84
2023-02-25T00:14:14.440Z,89.77
2023-02-25T00:15:13.447Z,89.29
2023-02-25T00:16:13.419Z,89.71
2023-02-25T00:17:13.492Z,88.88
2023-02-25T00:18:13.390Z,89.71
2023-02-25T00:19:13.377Z,89.71
2023-02-25T00:20:13.392Z,89.71
2023-02-25T00:21:13.361Z,88.78
2023-02-25T00:22:13.346Z,89.71
2023-02-25T00:23:13.331Z,89.81
2023-02-25T00:24:16.648Z,89.81
2023-02-25T00:25:13.326Z,89.40
2023-02-25T00:26:13.319Z,88.98
2023-02-25T00:27:13.286Z,89.71
2023-02-25T00:28:13.310Z,89.71
2023-02-25T00:29:13.266Z,89.71
2023-02-25T00:30:13.263Z,89.61
2023-02-25T00:31:13.382Z,89.50
2023-02-25T00:32:13.431Z,89.92
2023-02-25T00:33:13.252Z,89.61
2023-02-25T00:34:13.219Z,89.92
2023-02-25T00:35:13.214Z,89.81
2023-02-25T00:36:13.211Z,89.34
2023-02-25T00:37:13.217Z,90.00
2023-02-25T00:38:16.071Z,89.28
2023-02-25T00:39:13.245Z,88.76
2023-02-25T00:40:13.152Z,88.79
2023-02-25T00:41:13.143Z,89.77
2023-02-25T00:42:13.161Z,88.94
2023-02-25T00:43:13.122Z,89.50
2023-02-25T00:44:13.271Z,89.71
2023-02-25T00:45:13.106Z,90.37
2023-02-25T00:46:13.216Z,90.02
2023-02-25T00:47:13.084Z,90.58
2023-02-25T00:48:13.079Z,90.58
2023-02-25T00:49:21.168Z,90.48
2023-02-25T00:50:14.061Z,90.44
2023-02-25T00:51:13.046Z,90.44
2023-02-25T00:52:13.027Z,90.33
2023-02-25T00:53:13.012Z,90.48
2023-02-25T00:54:13.007Z,90.12
2023-02-25T00:55:13.010Z,90.33
2023-02-25T00:56:12.985Z,90.23
2023-02-25T00:57:12.978Z,90.02
2023-02-25T00:58:12.983Z,90.27
2023-02-25T00:59:12.970Z,90.44
2023-02-25T01:00:12.965Z,90.12
2023-02-25T01:01:12.934Z,90.23
2023-02-25T01:02:12.951Z,90.23
2023-02-25T01:03:12.905Z,90.27
2023-02-25T01:04:12.912Z,90.12
2023-02-25T01:05:12.901Z,90.33
2023-02-25T01:06:12.908Z,90.02
2023-02-25T01:07:12.901Z,89.92
2023-02-25T01:08:12.851Z,89.61
2023-02-25T01:09:12.840Z,90.33
2023-02-25T01:10:12.841Z,89.61
2023-02-25T01:11:12.823Z,90.23
2023-02-25T01:12:12.811Z,90.44
2023-02-25T01:13:12.793Z,90.44
2023-02-25T01:14:12.810Z,89.87
2023-02-25T01:15:12.812Z,89.77
2023-02-25T01:16:12.862Z,90.08
2023-02-25T01:17:12.755Z,89.98
2023-02-25T01:18:12.766Z,90.19
2023-02-25T01:19:12.736Z,89.77
2023-02-25T01:20:12.834Z,90.19
2023-02-25T01:21:12.708Z,89.87
2023-02-25T01:22:12.696Z,89.77
2023-02-25T01:23:12.691Z,89.98
2023-02-25T01:24:12.692Z,89.52
2023-02-25T01:25:12.700Z,89.52
2023-02-25T01:26:12.651Z,89.98
2023-02-25T01:27:12.643Z,89.42
2023-02-25T01:28:12.634Z,89.62
2023-02-25T01:29:12.622Z,89.21
2023-02-25T01:30:12.649Z,89.83
2023-02-25T01:31:12.690Z,89.73
2023-02-25T01:32:12.644Z,89.83
2023-02-25T01:33:12.585Z,89.83
2023-02-25T01:34:12.592Z,89.83
2023-02-25T01:35:12.568Z,89.21
2023-02-25T01:36:12.550Z,89.94
2023-02-25T01:37:12.635Z,90.04
2023-02-25T01:38:12.529Z,90.04
2023-02-25T01:39:12.514Z,90.04
2023-02-25T01:40:12.527Z,89.94
2023-02-25T01:41:12.497Z,89.94
2023-02-25T01:42:12.563Z,90.04
2023-02-25T01:43:12.477Z,89.83
2023-02-25T01:44:12.462Z,89.73
2023-02-25T01:45:12.491Z,89.52
2023-02-25T01:46:12.512Z,89.62
2023-02-25T01:47:12.432Z,89.62
2023-02-25T01:48:12.420Z,90.04
2023-02-25T01:49:12.412Z,89.94
2023-02-25T01:50:12.424Z,89.94
2023-02-25T01:51:12.389Z,89.73
2023-02-25T01:52:12.377Z,89.48
2023-02-25T01:53:12.376Z,89.79
2023-02-25T01:54:12.364Z,89.52
2023-02-25T01:55:12.365Z,89.79
2023-02-25T01:56:12.340Z,89.28
2023-02-25T01:57:12.334Z,89.58
2023-02-25T01:58:12.314Z,89.38
2023-02-25T01:59:12.302Z,89.79
2023-02-25T02:00:12.322Z,89.38
2023-02-25T02:01:12.393Z,89.73
2023-02-25T02:02:12.346Z,89.62
2023-02-25T02:03:12.262Z,90.10
2023-02-25T02:04:12.250Z,89.48
2023-02-25T02:05:12.262Z,89.69
2023-02-25T02:06:12.230Z,90.10
2023-02-25T02:07:12.222Z,89.48
2023-02-25T02:08:12.217Z,90.00
2023-02-25T02:09:12.199Z,89.73
2023-02-25T02:10:12.204Z,89.89
2023-02-25T02:11:12.181Z,89.69
2023-02-25T02:12:12.169Z,89.69
2023-02-25T02:13:12.156Z,89.58
2023-02-25T02:14:12.154Z,89.58
2023-02-25T02:15:12.166Z,89.58
2023-02-25T02:16:12.198Z,89.89
2023-02-25T02:17:12.119Z,89.79
2023-02-25T02:18:12.127Z,89.17
2023-02-25T02:19:12.093Z,89.73
2023-02-25T02:20:12.114Z,88.79
2023-02-25T02:21:12.080Z,88.79
2023-02-25T02:22:12.062Z,88.48
2023-02-25T02:23:12.045Z,88.55
2023-02-25T02:24:12.038Z,88.28
2023-02-25T02:25:12.054Z,88.03
2023-02-25T02:26:12.039Z,88.07
2023-02-25T02:27:12.008Z,88.13
2023-02-25T02:28:11.990Z,88.07
2023-02-25T02:29:11.985Z,88.28
2023-02-25T02:30:11.984Z,88.07
2023-02-25T02:31:12.088Z,88.07
2023-02-25T02:32:12.081Z,88.48
2023-02-25T02:33:11.944Z,87.66
2023-02-25T02:34:11.950Z,87.87
2023-02-25T02:35:11.921Z,87.51
2023-02-25T02:36:11.930Z,88.03
2023-02-25T02:37:11.899Z,87.82
2023-02-25T02:38:11.890Z,87.72
2023-02-25T02:39:11.883Z,87.20
2023-02-25T02:40:11.873Z,86.89
2023-02-25T02:41:11.877Z,87.51
2023-02-25T02:42:11.840Z,87.20
2023-02-25T02:43:11.831Z,86.47
2023-02-25T02:44:11.822Z,86.79
2023-02-25T02:45:11.807Z,86.47
2023-02-25T02:46:11.881Z,86.58
2023-02-25T02:47:11.786Z,86.68
2023-02-25T02:48:11.781Z,86.58
2023-02-25T02:49:11.766Z,86.72
2023-02-25T02:50:11.775Z,86.27
2023-02-25T02:51:11.757Z,86.79
2023-02-25T02:52:11.727Z,86.47
2023-02-25T02:53:11.729Z,86.27
2023-02-25T02:54:11.705Z,86.89
2023-02-25T02:55:11.716Z,86.27
2023-02-25T02:56:11.699Z,86.58
2023-02-25T02:57:11.674Z,86.68
2023-02-25T02:58:11.700Z,86.47
2023-02-25T02:59:11.729Z,86.68
2023-02-25T03:00:11.640Z,86.89
2023-02-25T03:01:11.732Z,86.99
2023-02-25T03:02:11.623Z,86.99
2023-02-25T03:03:11.613Z,87.10
2023-02-25T03:04:11.641Z,86.47
2023-02-25T03:05:11.627Z,86.37
2023-02-25T03:06:11.628Z,86.37
2023-02-25T03:07:11.566Z,86.89
2023-02-25T03:08:11.552Z,86.68
2023-02-25T03:09:11.554Z,86.58
2023-02-25T03:10:11.532Z,86.58
2023-02-25T03:11:11.539Z,87.04
2023-02-25T03:12:11.508Z,86.99
2023-02-25T03:13:11.515Z,88.07
2023-02-25T03:14:11.492Z,87.24
2023-02-25T03:15:11.482Z,88.45
2023-02-25T03:16:11.506Z,87.87
2023-02-25T03:17:11.455Z,87.55
2023-02-25T03:18:11.459Z,88.59
2023-02-25T03:19:11.437Z,88.03
2023-02-25T03:20:11.442Z,88.07
2023-02-25T03:21:11.482Z,88.28
2023-02-25T03:22:11.426Z,87.93
2023-02-25T03:23:11.398Z,87.35
2023-02-25T03:24:11.390Z,87.97
2023-02-25T03:25:11.382Z,88.48
2023-02-25T03:26:11.410Z,87.87
2023-02-25T03:27:11.355Z,87.97
2023-02-25T03:28:11.355Z,87.97
2023-02-25T03:29:11.340Z,87.87
2023-02-25T03:30:11.334Z,88.59
2023-02-25T03:31:11.405Z,88.39
2023-02-25T03:32:11.466Z,88.48
2023-02-25T03:33:11.306Z,88.11
2023-02-25T03:34:11.287Z,87.55
2023-02-25T03:35:11.286Z,87.76
2023-02-25T03:36:11.274Z,88.59
2023-02-25T03:37:11.250Z,88.59
2023-02-25T03:38:11.262Z,88.28
2023-02-25T03:39:11.227Z,88.07
2023-02-25T03:40:11.219Z,88.32
2023-02-25T03:41:11.251Z,88.53
2023-02-25T03:42:11.200Z,88.39
2023-02-25T03:43:11.192Z,88.39
2023-02-25T03:44:11.174Z,88.39
2023-02-25T03:45:11.168Z,88.48
2023-02-25T03:46:11.222Z,88.07
2023-02-25T03:47:11.150Z,87.97
2023-02-25T03:48:11.142Z,88.53
2023-02-25T03:49:11.129Z,88.63
2023-02-25T03:50:11.111Z,88.42
2023-02-25T03:51:11.114Z,88.42
2023-02-25T03:52:11.094Z,89.15
2023-02-25T03:53:11.084Z,88.73
2023-02-25T03:54:11.087Z,88.53
2023-02-25T03:55:11.057Z,88.42
2023-02-25T03:56:11.070Z,89.15
2023-02-25T03:57:11.035Z,88.63
2023-02-25T03:58:11.021Z,88.32
2023-02-25T03:59:11.022Z,88.32
2023-02-25T04:00:11.010Z,88.42
2023-02-25T04:01:11.000Z,88.42
2023-02-25T04:02:11.012Z,88.18
2023-02-25T04:03:10.966Z,88.07
2023-02-25T04:04:11.001Z,87.55
2023-02-25T04:05:10.990Z,88.01
2023-02-25T04:06:10.990Z,88.07
2023-02-25T04:07:10.933Z,87.70
2023-02-25T04:08:10.911Z,87.80
2023-02-25T04:09:10.908Z,88.07
2023-02-25T04:10:10.908Z,88.18
2023-02-25T04:11:10.903Z,87.38
2023-02-25T04:12:10.869Z,87.28
2023-02-25T04:13:10.859Z,87.80
2023-02-25T04:14:10.846Z,87.76
2023-02-25T04:15:10.839Z,87.35
2023-02-25T04:16:10.914Z,87.59
2023-02-25T04:17:10.813Z,88.01
2023-02-25T04:18:10.803Z,88.11
2023-02-25T04:19:10.791Z,88.07
2023-02-25T04:20:10.837Z,87.80
2023-02-25T04:21:10.814Z,88.01
2023-02-25T04:22:10.757Z,87.59
2023-02-25T04:23:10.749Z,87.90
2023-02-25T04:24:10.745Z,88.42
2023-02-25T04:25:10.750Z,87.87
2023-02-25T04:26:17.799Z,87.70
2023-02-25T04:27:10.708Z,87.87
2023-02-25T04:28:10.707Z,88.42
2023-02-25T04:29:10.699Z,88.21
2023-02-25T04:30:10.684Z,88.42
2023-02-25T04:31:10.826Z,88.21
2023-02-25T04:32:10.819Z,88.21
2023-02-25T04:33:10.645Z,88.01
2023-02-25T04:34:10.637Z,88.32
2023-02-25T04:35:10.634Z,88.07
2023-02-25T04:36:10.634Z,88.21
2023-02-25T04:37:10.608Z,88.11
2023-02-25T04:38:10.593Z,88.01
2023-02-25T04:39:10.589Z,88.11
2023-02-25T04:40:10.574Z,88.21
2023-02-25T04:41:10.588Z,87.80
2023-02-25T04:42:10.577Z,88.67
2023-02-25T04:43:10.545Z,88.46
2023-02-25T04:44:10.533Z,88.98
2023-02-25T04:45:10.516Z,88.46
2023-02-25T04:46:10.570Z,88.63
2023-02-25T04:47:10.500Z,88.94
2023-02-25T04:48:10.485Z,88.57
2023-02-25T04:49:10.474Z,88.88
2023-02-25T04:50:10.473Z,89.71
2023-02-25T04:51:10.494Z,89.61
2023-02-25T04:52:10.447Z,89.56
2023-02-25T04:53:10.440Z,88.98
2023-02-25T04:54:10.428Z,88.98
2023-02-25T04:55:10.419Z,88.36
2023-02-25T04:56:10.412Z,89.61
2023-02-25T04:57:10.397Z,89.50
2023-02-25T04:58:10.397Z,89.61
2023-02-25T04:59:10.372Z,89.40
2023-02-25T05:00:10.368Z,89.50
2023-02-25T05:01:10.365Z,89.71
2023-02-25T05:02:10.409Z,88.98
2023-02-25T05:03:10.334Z,89.40
2023-02-25T05:04:10.313Z,89.71
2023-02-25T05:05:10.493Z,89.50
2023-02-25T05:06:10.313Z,90.12
2023-02-25T05:07:10.300Z,89.81
2023-02-25T05:08:10.274Z,89.61
2023-02-25T05:09:10.568Z,89.71
2023-02-25T05:10:10.277Z,89.92
2023-02-25T05:11:10.262Z,89.92
2023-02-25T05:12:10.235Z,89.96
2023-02-25T05:13:10.226Z,89.23
2023-02-25T05:14:10.263Z,89.81
2023-02-25T05:15:10.204Z,89.96
2023-02-25T05:16:10.266Z,89.92
2023-02-25T05:17:10.188Z,89.86
2023-02-25T05:18:10.165Z,89.96
2023-02-25T05:19:10.178Z,89.96
2023-02-25T05:20:10.193Z,89.54
2023-02-25T05:21:10.222Z,89.75
2023-02-25T05:22:10.125Z,89.96
2023-02-25T05:23:10.127Z,89.86
2023-02-25T05:24:10.101Z,89.44
2023-02-25T05:25:10.129Z,89.54
2023-02-25T05:26:10.112Z,89.75
2023-02-25T05:27:10.082Z,90.02
2023-02-25T05:28:10.062Z,90.12
2023-02-25T05:29:10.048Z,90.06
2023-02-25T05:30:10.145Z,89.44
2023-02-25T05:31:10.212Z,90.17
2023-02-25T05:32:10.232Z,89.75
2023-02-25T05:33:10.004Z,89.65
2023-02-25T05:34:10.007Z,89.23
2023-02-25T05:35:09.989Z,89.44
2023-02-25T05:36:09.995Z,89.86
2023-02-25T05:37:09.962Z,89.03
2023-02-25T05:38:09.957Z,88.71
2023-02-25T05:39:09.939Z,88.51
2023-02-25T05:40:09.964Z,88.92
2023-02-25T05:41:09.920Z,88.51
2023-02-25T05:42:09.918Z,89.03
2023-02-25T05:43:09.895Z,88.98
2023-02-25T05:44:09.887Z,89.50
2023-02-25T05:45:09.885Z,89.40
2023-02-25T05:46:09.886Z,89.81
2023-02-25T05:47:09.946Z,88.98
2023-02-25T05:48:09.845Z,88.78
2023-02-25T05:49:09.828Z,88.88
2023-02-25T05:50:09.830Z,88.67
2023-02-25T05:51:09.814Z,88.46
2023-02-25T05:52:09.828Z,88.78
2023-02-25T05:53:09.800Z,88.88
2023-02-25T05:54:09.774Z,88.36
2023-02-25T05:55:09.763Z,88.88
2023-02-25T05:56:09.813Z,88.98
2023-02-25T05:57:09.763Z,88.82
2023-02-25T05:58:09.736Z,89.23
2023-02-25T05:59:09.725Z,88.92
2023-02-25T06:00:09.754Z,89.03
2023-02-25T06:01:09.700Z,89.37
2023-02-25T06:02:09.819Z,90.00
2023-02-25T06:03:09.783Z,89.13
2023-02-25T06:04:09.669Z,89.96
2023-02-25T06:05:09.663Z,89.86
2023-02-25T06:06:09.653Z,89.89
2023-02-25T06:07:09.653Z,89.89
2023-02-25T06:08:09.622Z,89.96
2023-02-25T06:09:09.686Z,89.23
2023-02-25T06:10:09.608Z,89.96
2023-02-25T06:11:09.614Z,89.79
2023-02-25T06:12:09.620Z,89.65
2023-02-25T06:13:09.575Z,89.79
2023-02-25T06:14:09.559Z,89.75
2023-02-25T06:15:09.545Z,89.96
2023-02-25T06:16:09.624Z,89.75
2023-02-25T06:17:09.553Z,89.54
2023-02-25T06:18:09.534Z,89.58
2023-02-25T06:19:09.503Z,90.00
2023-02-25T06:20:09.491Z,90.00
2023-02-25T06:21:09.477Z,90.41
2023-02-25T06:22:09.492Z,90.35
2023-02-25T06:23:09.462Z,90.77
2023-02-25T06:24:09.455Z,91.24
2023-02-25T06:25:09.442Z,90.52
2023-02-25T06:26:09.433Z,90.72
2023-02-25T06:27:09.456Z,90.62
2023-02-25T06:28:09.415Z,90.10
2023-02-25T06:29:09.404Z,90.45
2023-02-25T06:30:09.422Z,90.31
2023-02-25T06:31:09.424Z,90.14
2023-02-25T06:32:09.486Z,90.66
2023-02-25T06:33:09.348Z,90.45
2023-02-25T06:34:09.359Z,90.72
2023-02-25T06:35:09.329Z,90.66
2023-02-25T06:36:09.335Z,90.83
2023-02-25T06:37:09.325Z,91.03
2023-02-25T06:38:09.299Z,90.72
2023-02-25T06:39:09.284Z,90.77
2023-02-25T06:40:09.282Z,90.35
2023-02-25T06:41:09.270Z,90.77
2023-02-25T06:42:09.272Z,90.45
2023-02-25T06:43:09.255Z,90.87
2023-02-25T06:44:09.247Z,90.97
2023-02-25T06:45:09.229Z,90.97
2023-02-25T06:46:09.373Z,90.56
2023-02-25T06:47:09.250Z,90.45
2023-02-25T06:48:09.248Z,90.66
2023-02-25T06:49:09.232Z,90.35
2023-02-25T06:50:09.217Z,90.66
2023-02-25T06:51:09.352Z,90.56
2023-02-25T06:52:09.187Z,91.28
2023-02-25T06:53:09.144Z,90.97
2023-02-25T06:54:09.143Z,91.39
2023-02-25T06:55:09.122Z,91.60
2023-02-25T06:56:09.105Z,91.70
2023-02-25T06:57:09.113Z,91.91
2023-02-25T06:58:09.081Z,91.60
2023-02-25T06:59:09.073Z,91.60
2023-02-25T07:00:09.107Z,91.80
2023-02-25T07:01:09.161Z,91.49
2023-02-25T07:02:09.053Z,90.87
2023-02-25T07:03:09.024Z,90.72
2023-02-25T07:04:09.064Z,90.72
2023-02-25T07:05:09.011Z,90.52
2023-02-25T07:06:09.011Z,90.83
2023-02-25T07:07:09.035Z,90.35
2023-02-25T07:08:08.984Z,90.31
2023-02-25T07:09:08.962Z,90.41
2023-02-25T07:10:08.950Z,90.14
2023-02-25T07:11:08.936Z,90.14
2023-02-25T07:12:08.973Z,90.04
2023-02-25T07:13:08.917Z,90.14
2023-02-25T07:14:08.906Z,90.66
2023-02-25T07:15:08.900Z,90.45
2023-02-25T07:16:08.920Z,90.66
2023-02-25T07:17:08.919Z,90.66
2023-02-25T07:18:08.883Z,90.66
2023-02-25T07:19:08.859Z,90.87
2023-02-25T07:20:08.857Z,90.45
2023-02-25T07:21:08.830Z,90.56
2023-02-25T07:22:08.841Z,90.41
2023-02-25T07:23:08.843Z,90.45
2023-02-25T07:24:08.797Z,90.97
2023-02-25T07:25:08.863Z,91.08
2023-02-25T07:26:08.787Z,90.87
2023-02-25T07:27:08.763Z,90.87
2023-02-25T07:28:08.767Z,90.77
2023-02-25T07:29:08.742Z,90.56
2023-02-25T07:30:08.737Z,90.77
2023-02-25T07:31:08.850Z,91.91
2023-02-25T07:32:08.884Z,90.87
2023-02-25T07:33:08.802Z,90.72
2023-02-25T07:34:08.702Z,90.72
2023-02-25T07:35:08.678Z,90.31
2023-02-25T07:36:08.664Z,90.83
2023-02-25T07:37:08.660Z,90.52
2023-02-25T07:38:08.720Z,90.72
2023-02-25T07:39:08.636Z,90.52
2023-02-25T07:40:08.642Z,90.41
2023-02-25T07:41:08.622Z,90.62
2023-02-25T07:42:08.604Z,90.52
2023-02-25T07:43:08.613Z,90.37
2023-02-25T07:44:08.584Z,90.17
2023-02-25T07:45:08.570Z,90.17
2023-02-25T07:46:08.716Z,90.17
2023-02-25T07:47:08.552Z,89.86
2023-02-25T07:48:08.572Z,90.23
2023-02-25T07:49:08.526Z,90.06
2023-02-25T07:50:10.259Z,90.27
2023-02-25T07:51:08.507Z,89.75
2023-02-25T07:52:08.540Z,89.65
2023-02-25T07:53:08.500Z,90.02
2023-02-25T07:54:08.612Z,90.02
2023-02-25T07:55:08.471Z,89.71
2023-02-25T07:56:08.462Z,89.13
2023-02-25T07:57:08.459Z,89.03
2023-02-25T07:58:08.455Z,89.96
2023-02-25T07:59:08.424Z,89.75
2023-02-25T08:00:08.409Z,89.75
2023-02-25T08:01:08.475Z,89.54
2023-02-25T08:02:08.415Z,89.13
2023-02-25T08:03:08.475Z,89.34
2023-02-25T08:04:08.383Z,89.29
2023-02-25T08:05:08.365Z,89.50
2023-02-25T08:06:08.358Z,90.02
2023-02-25T08:07:08.338Z,89.86
2023-02-25T08:08:08.351Z,89.86
2023-02-25T08:09:08.330Z,89.19
2023-02-25T08:10:08.322Z,90.02
2023-02-25T08:11:08.303Z,90.02
2023-02-25T08:12:08.305Z,90.12
2023-02-25T08:13:08.273Z,89.61
2023-02-25T08:14:08.259Z,89.25
2023-02-25T08:15:08.253Z,89.40
2023-02-25T08:16:08.318Z,88.94
2023-02-25T08:17:08.248Z,88.78
2023-02-25T08:18:08.237Z,88.11
2023-02-25T08:19:08.208Z,88.26
2023-02-25T08:20:08.197Z,88.21
2023-02-25T08:21:08.193Z,88.26
2023-02-25T08:22:08.181Z,88.32
2023-02-25T08:23:08.245Z,88.21
2023-02-25T08:24:08.166Z,88.11
2023-02-25T08:25:08.141Z,87.95
2023-02-25T08:26:08.156Z,88.05
2023-02-25T08:27:08.120Z,87.95
2023-02-25T08:28:08.137Z,87.84
2023-02-25T08:29:08.105Z,88.05
2023-02-25T08:30:08.094Z,87.63
2023-02-25T08:31:08.283Z,88.05
2023-02-25T08:32:08.279Z,87.99
2023-02-25T08:33:08.114Z,87.95
2023-02-25T08:34:08.050Z,88.15
2023-02-25T08:35:08.046Z,88.15
2023-02-25T08:36:08.052Z,88.26
2023-02-25T08:37:08.014Z,88.36
2023-02-25T08:38:08.041Z,88.32
2023-02-25T08:39:08.000Z,88.26
2023-02-25T08:40:07.981Z,88.26
2023-02-25T08:41:08.002Z,87.84
2023-02-25T08:42:07.984Z,87.84
2023-02-25T08:43:07.993Z,88.15
2023-02-25T08:44:07.946Z,88.46
2023-02-25T08:45:07.931Z,88.42
2023-02-25T08:46:07.926Z,87.63
2023-02-25T08:47:08.078Z,87.18
2023-02-25T08:48:08.043Z,87.38
2023-02-25T08:49:07.880Z,87.74
2023-02-25T08:50:07.879Z,87.38
2023-02-25T08:51:07.861Z,86.97
2023-02-25T08:52:07.859Z,87.18
2023-02-25T08:53:07.866Z,87.59
2023-02-25T08:54:07.828Z,87.70
2023-02-25T08:55:07.816Z,86.76
2023-02-25T08:56:07.828Z,87.18
2023-02-25T08:57:07.804Z,86.76
2023-02-25T08:58:07.823Z,86.62
2023-02-25T08:59:07.775Z,87.07
2023-02-25T09:00:07.767Z,87.07
2023-02-25T09:01:07.817Z,86.72
2023-02-25T09:02:07.741Z,86.41
2023-02-25T09:03:07.753Z,86.41
2023-02-25T09:04:07.774Z,86.45
2023-02-25T09:05:07.714Z,86.55
2023-02-25T09:06:07.707Z,86.93
2023-02-25T09:07:07.688Z,86.35
2023-02-25T09:08:07.703Z,87.18
2023-02-25T09:09:07.662Z,87.18
2023-02-25T09:10:07.668Z,87.18
2023-02-25T09:11:07.644Z,86.31
2023-02-25T09:12:07.632Z,87.07
2023-02-25T09:13:07.636Z,86.35
2023-02-25T09:14:07.631Z,86.21
2023-02-25T09:15:07.609Z,85.83
2023-02-25T09:16:07.680Z,86.25
2023-02-25T09:17:07.586Z,86.25
2023-02-25T09:18:07.599Z,86.66
2023-02-25T09:19:07.570Z,86.52
2023-02-25T09:20:07.567Z,86.31
2023-02-25T09:21:07.552Z,86.21
2023-02-25T09:22:07.524Z,86.25
2023-02-25T09:23:07.534Z,85.27
2023-02-25T09:24:07.510Z,85.06
2023-02-25T09:25:07.499Z,85.17
2023-02-25T09:26:07.487Z,85.38
2023-02-25T09:27:07.488Z,85.17
2023-02-25T09:28:07.488Z,85.17
2023-02-25T09:29:07.464Z,85.06
2023-02-25T09:30:07.470Z,85.06
2023-02-25T09:31:07.539Z,84.92
2023-02-25T09:32:07.554Z,84.51
2023-02-25T09:33:07.556Z,84.61
2023-02-25T09:34:07.427Z,84.51
2023-02-25T09:35:07.391Z,84.72
2023-02-25T09:36:07.377Z,84.09
2023-02-25T09:37:07.377Z,83.58
2023-02-25T09:38:07.355Z,83.68
2023-02-25T09:39:07.374Z,83.47
2023-02-25T09:40:07.344Z,83.54
2023-02-25T09:41:07.322Z,82.50
2023-02-25T09:42:07.315Z,82.40
2023-02-25T09:43:07.326Z,82.09
2023-02-25T09:44:07.295Z,82.36
2023-02-25T09:45:07.281Z,82.05
2023-02-25T09:46:07.435Z,81.91
2023-02-25T09:47:07.255Z,81.91
2023-02-25T09:48:07.410Z,81.60
2023-02-25T09:49:07.256Z,81.09
2023-02-25T09:50:07.225Z,80.53
2023-02-25T09:51:07.220Z,80.15
2023-02-25T09:52:07.213Z,80.26
2023-02-25T09:53:07.192Z,81.29
2023-02-25T09:54:08.507Z,81.35
2023-02-25T09:55:07.170Z,81.19
2023-02-25T09:56:07.168Z,81.49
2023-02-25T09:57:07.150Z,81.19
2023-02-25T09:58:07.139Z,81.39
2023-02-25T09:59:07.156Z,81.39
2023-02-25T10:00:07.120Z,81.60
2023-02-25T10:01:07.138Z,81.70
2023-02-25T10:02:07.276Z,81.33
2023-02-25T10:03:07.297Z,81.49
2023-02-25T10:04:07.098Z,81.29
2023-02-25T10:05:07.085Z,81.35
2023-02-25T10:06:07.057Z,81.29
2023-02-25T10:07:07.051Z,81.15
2023-02-25T10:08:07.029Z,81.15
2023-02-25T10:09:07.051Z,81.05
2023-02-25T10:10:07.009Z,81.46
2023-02-25T10:11:07.008Z,79.91
2023-02-25T10:12:06.998Z,79.70
2023-02-25T10:13:07.007Z,79.60
2023-02-25T10:14:06.982Z,79.05
2023-02-25T10:15:06.959Z,79.56
2023-02-25T10:16:06.948Z,79.49
2023-02-25T10:17:07.094Z,79.66
2023-02-25T10:18:06.967Z,79.70
2023-02-25T10:19:06.932Z,80.26
2023-02-25T10:20:06.907Z,80.74
2023-02-25T10:21:06.895Z,81.09
2023-02-25T10:22:06.887Z,81.43
2023-02-25T10:23:06.879Z,82.05
2023-02-25T10:24:06.887Z,81.74
2023-02-25T10:25:06.852Z,82.50
2023-02-25T10:26:06.853Z,82.29
2023-02-25T10:27:14.757Z,82.29
2023-02-25T10:28:06.825Z,82.71
2023-02-25T10:29:06.837Z,82.65
2023-02-25T10:30:06.807Z,82.44
2023-02-25T10:31:06.959Z,82.48
2023-02-25T10:32:06.937Z,82.89
2023-02-25T10:33:06.791Z,82.58
2023-02-25T10:34:06.805Z,83.20
2023-02-25T10:35:06.743Z,83.41
2023-02-25T10:36:06.737Z,83.72
2023-02-25T10:37:06.721Z,83.72
2023-02-25T10:38:06.706Z,83.83
2023-02-25T10:39:06.714Z,83.62
2023-02-25T10:40:06.685Z,83.51
2023-02-25T10:41:06.684Z,83.37
2023-02-25T10:42:06.668Z,83.41
2023-02-25T10:43:06.686Z,83.37
2023-02-25T10:44:06.669Z,83.99
2023-02-25T10:45:06.631Z,83.68
2023-02-25T10:46:06.689Z,83.54
2023-02-25T10:47:06.610Z,83.02
2023-02-25T10:48:06.616Z,82.57
2023-02-25T10:49:11.379Z,81.95
2023-02-25T10:50:07.593Z,81.91
2023-02-25T10:51:06.567Z,81.23
2023-02-25T10:52:06.553Z,81.19
2023-02-25T10:53:06.547Z,81.05
2023-02-25T10:54:06.547Z,80.57
2023-02-25T10:55:06.522Z,80.22
2023-02-25T10:56:06.522Z,80.32
2023-02-25T10:57:06.499Z,79.60
2023-02-25T10:58:06.486Z,79.91
2023-02-25T10:59:06.481Z,80.11
2023-02-25T11:00:06.477Z,80.32
2023-02-25T11:01:06.518Z,80.53
2023-02-25T11:02:06.584Z,80.18
2023-02-25T11:03:06.440Z,80.18
2023-02-25T11:04:06.473Z,79.87
2023-02-25T11:05:06.429Z,79.77
2023-02-25T11:06:06.428Z,79.77
2023-02-25T11:07:06.416Z,79.73
2023-02-25T11:08:06.379Z,79.87
2023-02-25T11:09:06.373Z,79.83
2023-02-25T11:10:06.379Z,79.83
2023-02-25T11:11:06.348Z,80.04
2023-02-25T11:12:06.350Z,79.42
2023-02-25T11:13:06.333Z,79.32
2023-02-25T11:14:06.318Z,79.22
2023-02-25T11:15:06.342Z,79.63
2023-02-25T11:16:06.362Z,79.66
2023-02-25T11:17:08.338Z,79.66
2023-02-25T11:18:06.278Z,79.91
2023-02-25T11:19:06.277Z,80.43
2023-02-25T11:20:06.267Z,80.29
2023-02-25T11:21:06.242Z,80.81
2023-02-25T11:22:06.267Z,81.12
2023-02-25T11:23:06.234Z,81.33
2023-02-25T11:24:06.266Z,81.43
2023-02-25T11:25:06.196Z,82.36
2023-02-25T11:26:06.187Z,82.57
2023-02-25T11:27:06.179Z,82.98
2023-02-25T11:28:06.170Z,83.44
2023-02-25T11:29:06.175Z,83.81
2023-02-25T11:30:06.142Z,83.09
2023-02-25T11:31:06.302Z,83.64
2023-02-25T11:32:06.257Z,83.91
2023-02-25T11:33:06.152Z,84.22
2023-02-25T11:34:06.163Z,84.01
2023-02-25T11:35:06.091Z,84.01
2023-02-25T11:36:06.077Z,84.12
2023-02-25T11:37:07.761Z,83.61
2023-02-25T11:38:06.080Z,83.67
2023-02-25T11:39:06.079Z,83.09
2023-02-25T11:40:06.047Z,82.88
2023-02-25T11:41:06.021Z,82.78
2023-02-25T11:42:06.016Z,82.78
2023-02-25T11:43:06.015Z,82.36
2023-02-25T11:44:06.044Z,82.88
2023-02-25T11:45:05.997Z,82.78
2023-02-25T11:46:06.035Z,82.98
2023-02-25T11:47:05.964Z,82.88
2023-02-25T11:48:05.956Z,82.98
2023-02-25T11:49:05.940Z,82.26
2023-02-25T11:50:05.962Z,81.84
2023-02-25T11:51:05.920Z,81.43
2023-02-25T11:52:05.911Z,81.33
2023-02-25T11:53:05.896Z,81.02
2023-02-25T11:54:05.922Z,81.23
2023-02-25T11:55:08.639Z,81.19
2023-02-25T11:56:05.858Z,81.19
2023-02-25T11:57:05.845Z,80.67
2023-02-25T11:58:05.853Z,80.43
2023-02-25T11:59:05.830Z,80.26
2023-02-25T12:00:05.831Z,79.80
2023-02-25T12:01:05.805Z,79.84
2023-02-25T12:02:05.794Z,79.63
2023-02-25T12:03:05.833Z,79.91
2023-02-25T12:04:05.775Z,79.94
2023-02-25T12:05:05.779Z,79.80
2023-02-25T12:06:05.786Z,79.70
2023-02-25T12:07:05.736Z,79.70
2023-02-25T12:08:13.514Z,78.98
2023-02-25T12:09:06.717Z,78.98
2023-02-25T12:10:05.738Z,78.56
2023-02-25T12:11:05.709Z,78.36
2023-02-25T12:12:05.690Z,77.94
2023-02-25T12:13:05.672Z,77.94
2023-02-25T12:14:05.667Z,77.64
2023-02-25T12:15:05.667Z,78.36
2023-02-25T12:16:05.806Z,78.25
2023-02-25T12:17:05.630Z,78.36
2023-02-25T12:18:05.673Z,78.88
2023-02-25T12:19:05.605Z,79.80
2023-02-25T12:20:05.613Z,79.91
2023-02-25T12:21:05.591Z,79.91
2023-02-25T12:22:05.588Z,80.01
2023-02-25T12:23:05.571Z,80.63
2023-02-25T12:24:05.553Z,81.15
2023-02-25T12:25:05.555Z,81.25
2023-02-25T12:26:05.559Z,81.39
2023-02-25T12:27:05.528Z,80.94
2023-02-25T12:28:05.525Z,80.84
2023-02-25T12:29:05.580Z,80.26
2023-02-25T12:30:05.506Z,80.05
2023-02-25T12:31:05.623Z,80.32
2023-02-25T12:32:05.555Z,80.26
2023-02-25T12:33:05.461Z,80.53
2023-02-25T12:34:05.457Z,80.32
2023-02-25T12:35:05.450Z,81.15
2023-02-25T12:36:05.450Z,80.74
2023-02-25T12:37:05.438Z,80.05
2023-02-25T12:38:05.450Z,79.74
2023-02-25T12:39:05.395Z,79.94
2023-02-25T12:40:05.396Z,79.53
2023-02-25T12:41:05.384Z,80.29
2023-02-25T12:42:05.405Z,80.46
2023-02-25T12:43:05.352Z,80.08
2023-02-25T12:44:05.343Z,80.50
2023-02-25T12:45:05.352Z,81.43
2023-02-25T12:46:05.406Z,81.26
2023-02-25T12:47:05.307Z,81.16
2023-02-25T12:48:05.301Z,81.37
2023-02-25T12:49:05.290Z,81.78
2023-02-25T12:50:05.291Z,81.78
2023-02-25T12:51:05.268Z,81.26
2023-02-25T12:52:05.249Z,81.37